Schaerbeek, Belgium
Current Conditions -  °F | °C
As of 11:50 AM on Sunday 26 Oct 2014 (Local Time) from EBBR Reporting Station
Broken Clouds Broken Clouds  
Wind Chill: 57°   Ceiling: 1500
Heat Index: 57°   Visibility: 6mi
Dew Point: 52°   Wind: 10mph
Humidity: 82%   Direction: 220°SW
Pressure: 30.27"   Gusts: NA
Location:  50.86°N, 4.39°E
Report Text: EBBR 260950Z 22009KT 9999 BKN015 14/11 Q1025 TEMPO BKN012
Loading
Personal Weather Stations






























Interactive Weather Map
Tropical Storm Tracking
New forecast layout! Learn more

10-Day Weather Forecast

Advertisements
Track Severe Weather on mobile